createdAt,value
2018-03-26T00:00:11.363Z,35.20
2018-03-26T00:02:06.330Z,36.90
2018-03-26T00:03:05.812Z,35.70
2018-03-26T00:05:01.737Z,36.50
2018-03-26T00:06:02.246Z,36.80
2018-03-26T00:07:56.155Z,35.40
2018-03-26T00:08:56.160Z,38.90
2018-03-26T00:10:49.616Z,40.10
2018-03-26T00:11:49.599Z,38.40
2018-03-26T00:13:44.084Z,39.90
2018-03-26T00:14:44.043Z,43.00
2018-03-26T00:16:38.993Z,38.80
2018-03-26T00:17:38.487Z,41.20
2018-03-26T00:19:33.448Z,37.80
2018-03-26T00:20:32.908Z,39.00
2018-03-26T00:22:27.361Z,44.00
2018-03-26T00:23:26.872Z,43.10
2018-03-26T00:25:24.297Z,38.90
2018-03-26T00:26:24.786Z,41.60
2018-03-26T00:28:32.256Z,38.90
2018-03-26T00:29:31.352Z,37.70
2018-03-26T00:31:25.797Z,41.30
2018-03-26T00:32:26.299Z,42.40
2018-03-26T00:34:20.210Z,40.50
2018-03-26T00:35:20.746Z,39.80
2018-03-26T00:37:14.651Z,40.10
2018-03-26T00:38:14.639Z,37.30
2018-03-26T00:40:08.109Z,41.80
2018-03-26T00:41:08.080Z,41.70
2018-03-26T00:43:02.492Z,42.10
2018-03-26T00:44:02.518Z,41.60
2018-03-26T00:45:58.465Z,43.00
2018-03-26T00:46:58.975Z,41.50
2018-03-26T00:48:52.924Z,37.70
2018-03-26T00:49:53.396Z,39.20
2018-03-26T00:51:49.227Z,39.30
2018-03-26T00:52:47.289Z,37.80
2018-03-26T00:54:43.774Z,43.20
2018-03-26T00:55:43.260Z,41.30
2018-03-26T00:57:37.695Z,38.40
2018-03-26T00:58:37.687Z,42.80
2018-03-26T01:00:32.126Z,40.60
2018-03-26T01:01:32.636Z,41.60
2018-03-26T01:03:28.052Z,40.90
2018-03-26T01:04:28.567Z,39.50
2018-03-26T01:06:24.022Z,38.00
2018-03-26T01:07:23.996Z,39.30
2018-03-26T01:09:18.958Z,42.40
2018-03-26T01:10:18.950Z,38.60
2018-03-26T01:12:14.332Z,42.40
2018-03-26T01:13:14.314Z,43.00
2018-03-26T01:15:11.273Z,43.00
2018-03-26T01:16:10.265Z,43.60
2018-03-26T01:18:03.703Z,41.50
2018-03-26T01:19:03.701Z,41.80
2018-03-26T01:20:58.157Z,42.90
2018-03-26T01:21:58.141Z,40.90
2018-03-26T01:23:53.094Z,41.00
2018-03-26T01:24:52.575Z,45.50
2018-03-26T01:26:48.510Z,43.00
2018-03-26T01:27:49.027Z,43.20
2018-03-26T01:29:42.978Z,42.20
2018-03-26T01:30:42.936Z,43.20
2018-03-26T01:32:37.408Z,47.00
2018-03-26T01:33:37.369Z,45.20
2018-03-26T01:35:32.806Z,48.50
2018-03-26T01:36:31.807Z,46.50
2018-03-26T01:38:25.235Z,50.40
2018-03-26T01:39:25.226Z,50.00
2018-03-26T01:41:19.688Z,47.20
2018-03-26T01:42:19.634Z,47.60
2018-03-26T01:44:14.091Z,48.30
2018-03-26T01:45:14.065Z,54.50
2018-03-26T01:47:08.501Z,50.70
2018-03-26T01:48:08.492Z,51.10
2018-03-26T01:50:03.433Z,48.90
2018-03-26T01:51:02.914Z,52.80
2018-03-26T01:52:57.859Z,54.90
2018-03-26T01:53:57.349Z,52.00
2018-03-26T01:55:50.775Z,51.20
2018-03-26T01:56:50.774Z,51.50
2018-03-26T01:58:44.174Z,56.00
2018-03-26T01:59:44.718Z,54.30
2018-03-26T02:01:38.589Z,54.90
2018-03-26T02:02:38.585Z,57.40
2018-03-26T02:04:33.551Z,57.90
2018-03-26T02:05:33.026Z,60.00
2018-03-26T02:07:27.981Z,57.10
2018-03-26T02:08:27.451Z,60.20
2018-03-26T02:10:21.904Z,62.00
2018-03-26T02:11:22.384Z,65.30
2018-03-26T02:13:17.341Z,63.50
2018-03-26T02:14:16.309Z,64.60
2018-03-26T02:16:10.753Z,66.60
2018-03-26T02:17:10.777Z,71.00
2018-03-26T02:19:05.227Z,67.90
2018-03-26T02:20:05.148Z,68.20
2018-03-26T02:21:59.612Z,71.60
2018-03-26T02:23:00.096Z,75.80
2018-03-26T02:24:55.560Z,81.10
2018-03-26T02:25:55.515Z,76.60
2018-03-26T02:27:48.936Z,81.90
2018-03-26T02:28:49.457Z,75.60
2018-03-26T02:30:42.376Z,81.10
2018-03-26T02:31:42.381Z,74.60
2018-03-26T02:33:36.807Z,79.40
2018-03-26T02:34:37.321Z,81.80
2018-03-26T02:36:31.772Z,84.70
2018-03-26T02:37:31.256Z,81.90
2018-03-26T02:39:25.662Z,78.50
2018-03-26T02:40:25.662Z,85.90
2018-03-26T02:42:21.638Z,82.30
2018-03-26T02:43:21.610Z,84.00
2018-03-26T02:45:16.065Z,83.80
2018-03-26T02:46:16.043Z,86.70
2018-03-26T02:48:10.998Z,81.00
2018-03-26T02:49:10.989Z,89.50
2018-03-26T02:51:05.457Z,85.80
2018-03-26T02:52:04.907Z,83.40
2018-03-26T02:53:59.843Z,90.00
2018-03-26T02:54:59.342Z,97.50
2018-03-26T02:56:54.285Z,87.90
2018-03-26T02:57:53.762Z,88.10
2018-03-26T02:59:48.186Z,83.40
2018-03-26T03:00:48.702Z,89.50
2018-03-26T03:02:44.629Z,90.30
2018-03-26T03:03:44.102Z,88.70
2018-03-26T03:05:37.570Z,86.60
2018-03-26T03:06:38.073Z,86.80
2018-03-26T03:08:32.496Z,88.10
2018-03-26T03:09:31.956Z,87.90
2018-03-26T03:11:26.900Z,89.00
2018-03-26T03:12:26.381Z,83.30
2018-03-26T03:14:20.817Z,90.60
2018-03-26T03:15:20.799Z,88.20
2018-03-26T03:17:15.244Z,94.30
2018-03-26T03:18:15.239Z,89.50
2018-03-26T03:20:10.180Z,89.80
2018-03-26T03:21:08.653Z,86.10
2018-03-26T03:23:03.094Z,88.00
2018-03-26T03:24:03.088Z,84.00
2018-03-26T03:25:56.520Z,86.70
2018-03-26T03:26:56.542Z,86.80
2018-03-26T03:28:50.932Z,89.70
2018-03-26T03:29:50.915Z,87.40
2018-03-26T03:31:44.385Z,83.80
2018-03-26T03:32:44.865Z,78.30
2018-03-26T03:34:39.286Z,80.00
2018-03-26T03:35:38.765Z,82.40
2018-03-26T03:37:35.727Z,92.50
2018-03-26T03:38:34.704Z,89.80
2018-03-26T03:40:30.159Z,86.20
2018-03-26T03:41:29.150Z,75.20
2018-03-26T03:43:24.111Z,89.80
2018-03-26T03:44:23.575Z,88.60
2018-03-26T03:46:18.021Z,86.20
2018-03-26T03:47:18.530Z,84.60
2018-03-26T03:49:14.461Z,83.70
2018-03-26T03:50:13.927Z,83.90
2018-03-26T03:52:08.345Z,82.00
2018-03-26T03:53:08.345Z,81.50
2018-03-26T03:55:04.285Z,79.40
2018-03-26T03:56:04.279Z,76.00
2018-03-26T03:57:57.743Z,83.10
2018-03-26T03:58:57.733Z,85.30
2018-03-26T04:00:54.186Z,80.90
2018-03-26T04:01:53.647Z,80.60
2018-03-26T04:03:49.615Z,87.60
2018-03-26T04:04:49.596Z,85.70
2018-03-26T04:06:45.565Z,77.60
2018-03-26T04:07:45.525Z,83.10
2018-03-26T04:09:40.476Z,79.20
2018-03-26T04:10:39.977Z,75.10
2018-03-26T04:12:35.896Z,79.90
2018-03-26T04:13:35.888Z,83.90
2018-03-26T04:15:30.838Z,76.50
2018-03-26T04:16:30.306Z,76.90
2018-03-26T04:18:26.287Z,80.40
2018-03-26T04:19:26.252Z,75.20
2018-03-26T04:21:23.694Z,74.20
2018-03-26T04:22:22.183Z,74.70
2018-03-26T04:24:18.153Z,67.90
2018-03-26T04:25:18.641Z,69.30
2018-03-26T04:27:13.564Z,72.90
2018-03-26T04:28:12.573Z,71.50
2018-03-26T04:30:09.025Z,69.90
2018-03-26T04:31:09.035Z,71.50
2018-03-26T04:33:01.958Z,71.00
2018-03-26T04:34:01.930Z,68.20
2018-03-26T04:35:58.390Z,66.80
2018-03-26T04:36:56.871Z,65.10
2018-03-26T04:38:50.817Z,64.70
2018-03-26T04:39:50.751Z,66.80
2018-03-26T04:41:46.720Z,66.70
2018-03-26T04:42:47.195Z,66.30
2018-03-26T04:44:40.630Z,64.10
2018-03-26T04:45:40.110Z,63.60
2018-03-26T04:47:35.059Z,65.40
2018-03-26T04:48:34.521Z,61.80
2018-03-26T04:50:30.476Z,64.10
2018-03-26T04:51:30.455Z,63.50
2018-03-26T04:53:25.902Z,65.50
2018-03-26T04:54:25.404Z,64.00
2018-03-26T04:56:19.867Z,60.70
2018-03-26T04:57:19.319Z,59.90
2018-03-26T04:59:14.288Z,66.90
2018-03-26T05:00:13.702Z,64.20
2018-03-26T05:02:08.173Z,61.50
2018-03-26T05:03:08.131Z,63.60
2018-03-26T05:05:03.584Z,62.80
2018-03-26T05:06:02.562Z,58.20
2018-03-26T05:07:57.011Z,62.80
2018-03-26T05:08:57.547Z,64.30
2018-03-26T05:10:53.447Z,60.80
2018-03-26T05:11:51.944Z,62.70
2018-03-26T05:13:45.804Z,63.30
2018-03-26T05:14:45.369Z,61.20
2018-03-26T05:16:38.282Z,68.10
2018-03-26T05:17:38.809Z,66.00
2018-03-26T05:19:34.719Z,64.70
2018-03-26T05:20:34.722Z,69.80
2018-03-26T05:22:29.658Z,63.00
2018-03-26T05:23:29.159Z,69.50
2018-03-26T05:25:24.084Z,64.50
2018-03-26T05:26:23.067Z,64.10
2018-03-26T05:28:20.020Z,63.60
2018-03-26T05:29:19.522Z,69.90
2018-03-26T05:31:12.503Z,71.40
2018-03-26T05:32:12.949Z,71.10
2018-03-26T05:34:06.894Z,69.00
2018-03-26T05:35:07.398Z,69.20
2018-03-26T05:37:07.337Z,72.90
2018-03-26T05:38:07.294Z,70.70
2018-03-26T05:40:03.750Z,67.30
2018-03-26T05:41:03.766Z,68.50
2018-03-26T05:42:59.215Z,68.50
2018-03-26T05:43:59.680Z,68.10
2018-03-26T05:45:55.611Z,73.30
2018-03-26T05:46:55.079Z,71.60
2018-03-26T05:48:50.026Z,73.60
2018-03-26T05:49:50.051Z,74.30
2018-03-26T05:51:44.418Z,75.50
2018-03-26T05:52:44.426Z,73.70
2018-03-26T05:54:41.349Z,74.80
2018-03-26T05:55:39.835Z,70.00
2018-03-26T05:57:33.796Z,77.70
2018-03-26T05:58:33.785Z,77.80
2018-03-26T06:00:28.225Z,74.50
2018-03-26T06:01:27.725Z,73.50
2018-03-26T06:03:23.663Z,72.50
2018-03-26T06:04:24.151Z,77.50
2018-03-26T06:06:20.095Z,75.50
2018-03-26T06:07:20.084Z,71.10
2018-03-26T06:09:15.004Z,75.30
2018-03-26T06:10:14.508Z,74.30
2018-03-26T06:12:08.901Z,78.40
2018-03-26T06:13:08.386Z,76.70
2018-03-26T06:15:02.842Z,72.00
2018-03-26T06:16:02.789Z,73.10
2018-03-26T06:18:03.237Z,73.20
2018-03-26T06:19:03.275Z,76.70
2018-03-26T06:20:59.190Z,71.80
2018-03-26T06:21:59.142Z,82.70
2018-03-26T06:23:55.105Z,82.10
2018-03-26T06:24:55.077Z,83.20
2018-03-26T06:26:51.510Z,79.50
2018-03-26T06:27:51.506Z,82.20
2018-03-26T06:29:46.427Z,80.20
2018-03-26T06:30:45.922Z,79.50
2018-03-26T06:32:41.852Z,82.90
2018-03-26T06:33:41.854Z,86.20
2018-03-26T06:35:34.767Z,83.00
2018-03-26T06:36:34.764Z,79.50
2018-03-26T06:38:29.701Z,76.50
2018-03-26T06:39:29.160Z,76.80
2018-03-26T06:41:23.605Z,83.60
2018-03-26T06:42:24.094Z,88.30
2018-03-26T06:44:17.067Z,78.60
2018-03-26T06:45:17.000Z,79.80
2018-03-26T06:47:12.465Z,83.70
2018-03-26T06:48:11.425Z,85.70
2018-03-26T06:50:06.378Z,84.90
2018-03-26T06:51:05.860Z,89.90
2018-03-26T06:53:01.804Z,84.80
2018-03-26T06:54:03.226Z,85.90
2018-03-26T06:55:57.220Z,84.00
2018-03-26T06:56:56.209Z,83.70
2018-03-26T06:58:52.084Z,87.00
2018-03-26T06:59:52.096Z,91.70
2018-03-26T07:01:48.041Z,87.60
2018-03-26T07:02:48.549Z,90.50
2018-03-26T07:04:45.478Z,84.20
2018-03-26T07:05:44.479Z,84.30
2018-03-26T07:07:40.921Z,86.90
2018-03-26T07:08:40.413Z,84.90
2018-03-26T07:10:36.268Z,89.70
2018-03-26T07:11:34.299Z,87.40
2018-03-26T07:13:27.789Z,89.80
2018-03-26T07:14:28.763Z,93.00
2018-03-26T07:16:21.244Z,82.50
2018-03-26T07:17:21.216Z,86.60
2018-03-26T07:19:17.105Z,88.70
2018-03-26T07:20:17.104Z,86.60
2018-03-26T07:22:11.068Z,78.40
2018-03-26T07:23:10.530Z,88.00
2018-03-26T07:25:06.445Z,93.90
2018-03-26T07:26:06.450Z,94.70
2018-03-26T07:28:00.929Z,94.50
2018-03-26T07:29:02.329Z,92.50
2018-03-26T07:30:56.848Z,89.30
2018-03-26T07:31:56.809Z,93.90
2018-03-26T07:33:51.245Z,91.00
2018-03-26T07:34:51.232Z,89.40
2018-03-26T07:36:46.199Z,90.30
2018-03-26T07:37:45.656Z,86.90
2018-03-26T07:39:40.609Z,91.70
2018-03-26T07:40:40.087Z,94.80
2018-03-26T07:42:35.035Z,99.30
2018-03-26T07:43:34.511Z,98.80
2018-03-26T07:45:28.948Z,91.70
2018-03-26T07:46:28.946Z,100.40
2018-03-26T07:48:22.422Z,98.00
2018-03-26T07:49:22.347Z,99.00
2018-03-26T07:51:15.785Z,103.80
2018-03-26T07:52:16.293Z,107.50
2018-03-26T07:54:10.237Z,95.30
2018-03-26T07:55:10.724Z,101.10
2018-03-26T07:57:04.673Z,103.90
2018-03-26T07:58:04.638Z,100.80
2018-03-26T07:59:59.103Z,109.60
2018-03-26T08:00:59.071Z,98.40
2018-03-26T08:02:53.519Z,106.00
2018-03-26T08:03:54.023Z,107.30
2018-03-26T08:05:47.978Z,115.60
2018-03-26T08:06:48.465Z,123.30
2018-03-26T08:08:43.898Z,127.30
2018-03-26T08:09:43.882Z,130.20
2018-03-26T08:11:40.792Z,137.70
2018-03-26T08:12:40.283Z,129.30
2018-03-26T08:14:34.182Z,135.40
2018-03-26T08:15:34.186Z,131.90
2018-03-26T08:17:27.627Z,135.40
2018-03-26T08:18:27.620Z,131.10
2018-03-26T08:20:21.062Z,137.50
2018-03-26T08:21:21.059Z,131.20
2018-03-26T08:23:16.010Z,136.50
2018-03-26T08:24:15.478Z,137.30
2018-03-26T08:26:09.935Z,146.50
2018-03-26T08:27:10.424Z,137.80
2018-03-26T08:29:04.929Z,140.30
2018-03-26T08:30:04.319Z,135.60
2018-03-26T08:32:01.274Z,131.10
2018-03-26T08:33:00.273Z,134.70
2018-03-26T08:34:55.221Z,134.90
2018-03-26T08:35:55.212Z,135.30
2018-03-26T08:37:50.678Z,135.40
2018-03-26T08:38:50.651Z,129.40
2018-03-26T08:40:45.109Z,129.80
2018-03-26T08:41:45.080Z,132.90
2018-03-26T08:43:39.545Z,132.60
2018-03-26T08:44:40.051Z,126.90
2018-03-26T08:46:33.946Z,128.80
2018-03-26T08:47:33.936Z,135.70
2018-03-26T08:49:30.890Z,127.00
2018-03-26T08:50:29.886Z,122.10
2018-03-26T08:52:25.823Z,128.20
2018-03-26T08:53:25.821Z,139.90
2018-03-26T08:55:21.774Z,125.80
2018-03-26T08:56:21.823Z,113.90
2018-03-26T08:58:16.725Z,122.20
2018-03-26T08:59:16.269Z,124.30
2018-03-26T09:01:10.640Z,116.10
2018-03-26T09:02:10.628Z,114.50
2018-03-26T09:04:05.113Z,115.80
2018-03-26T09:05:05.085Z,112.60
2018-03-26T09:06:59.561Z,103.90
2018-03-26T09:07:59.512Z,110.30
2018-03-26T09:09:54.451Z,100.80
2018-03-26T09:10:54.456Z,100.00
2018-03-26T09:12:49.398Z,107.00
2018-03-26T09:13:48.378Z,98.00
2018-03-26T09:15:43.337Z,96.70
2018-03-26T09:16:43.337Z,103.30
2018-03-26T09:18:38.267Z,99.10
2018-03-26T09:19:37.218Z,100.20
2018-03-26T09:21:31.654Z,71.40
2018-03-26T09:22:30.638Z,77.20
2018-03-26T09:24:24.075Z,74.50
2018-03-26T09:25:24.078Z,91.80
2018-03-26T09:27:18.513Z,73.40
2018-03-26T09:28:20.021Z,65.20
2018-03-26T09:30:14.398Z,43.70
2018-03-26T09:31:12.968Z,44.20
2018-03-26T09:33:07.901Z,52.30
2018-03-26T09:34:07.896Z,51.40
2018-03-26T09:36:01.831Z,43.40
2018-03-26T09:37:01.824Z,41.40
2018-03-26T09:38:57.749Z,45.60
2018-03-26T09:39:57.721Z,51.80
2018-03-26T09:41:52.182Z,39.20
2018-03-26T09:42:51.158Z,42.00
2018-03-26T09:44:45.585Z,46.10
2018-03-26T09:45:45.585Z,41.60
2018-03-26T09:47:41.544Z,36.20
2018-03-26T09:48:40.011Z,35.40
2018-03-26T09:50:34.974Z,39.80
2018-03-26T09:51:34.435Z,42.70
2018-03-26T09:53:30.415Z,39.50
2018-03-26T09:54:30.367Z,39.70
2018-03-26T09:56:23.793Z,37.90
2018-03-26T09:57:23.804Z,40.80
2018-03-26T09:59:18.758Z,41.80
2018-03-26T10:00:18.750Z,39.30
2018-03-26T10:02:14.656Z,28.50
2018-03-26T10:03:14.131Z,29.20
2018-03-26T10:05:08.573Z,25.20
2018-03-26T10:06:08.574Z,28.80
2018-03-26T10:08:03.047Z,26.50
2018-03-26T10:09:03.026Z,22.40
2018-03-26T10:10:56.491Z,18.80
2018-03-26T10:11:56.473Z,18.60
2018-03-26T10:13:50.884Z,18.30
2018-03-26T10:14:50.879Z,16.90
2018-03-26T10:16:44.828Z,14.80
2018-03-26T10:17:44.829Z,16.30
2018-03-26T10:19:38.765Z,17.40
2018-03-26T10:20:38.739Z,19.20
2018-03-26T10:22:34.682Z,16.80
2018-03-26T10:23:34.691Z,19.00
2018-03-26T10:25:29.129Z,21.50
2018-03-26T10:26:29.120Z,20.80
2018-03-26T10:28:23.529Z,25.30
2018-03-26T10:29:24.075Z,23.40
2018-03-26T10:31:17.985Z,24.20
2018-03-26T10:32:17.949Z,22.90
2018-03-26T10:34:12.911Z,22.60
2018-03-26T10:35:12.390Z,25.80
2018-03-26T10:37:05.899Z,20.40
2018-03-26T10:38:06.846Z,18.90
2018-03-26T10:40:01.311Z,20.30
2018-03-26T10:41:00.291Z,16.70
2018-03-26T10:42:54.726Z,18.50
2018-03-26T10:43:54.732Z,17.50
2018-03-26T10:45:49.209Z,17.50
2018-03-26T10:46:49.191Z,15.60
2018-03-26T10:48:44.635Z,14.50
2018-03-26T10:49:43.604Z,14.60
2018-03-26T10:51:37.553Z,10.10
2018-03-26T10:52:37.045Z,10.20
2018-03-26T10:54:31.493Z,10.60
2018-03-26T10:55:31.490Z,13.70
2018-03-26T10:57:26.446Z,12.10
2018-03-26T10:58:25.940Z,7.40
2018-03-26T11:00:20.931Z,6.80
2018-03-26T11:01:19.379Z,7.40
2018-03-26T11:03:12.799Z,8.90
2018-03-26T11:04:12.808Z,10.30
2018-03-26T11:06:07.265Z,11.70
2018-03-26T11:07:07.762Z,11.60
2018-03-26T11:09:04.200Z,8.50
2018-03-26T11:10:03.140Z,9.60
2018-03-26T11:11:58.605Z,7.90
2018-03-26T11:12:57.622Z,6.60
2018-03-26T11:14:51.074Z,8.50
2018-03-26T11:15:51.555Z,9.50
2018-03-26T11:17:45.999Z,7.80
2018-03-26T11:18:45.474Z,7.70
2018-03-26T11:20:42.425Z,8.20
2018-03-26T11:21:40.423Z,13.20
2018-03-26T11:23:35.405Z,8.70
2018-03-26T11:24:34.387Z,9.70
2018-03-26T11:26:28.853Z,9.90
2018-03-26T11:27:28.807Z,9.30
2018-03-26T11:29:22.246Z,9.70
2018-03-26T11:30:22.247Z,10.80
2018-03-26T11:32:16.689Z,9.50
2018-03-26T11:33:16.679Z,10.30
2018-03-26T11:35:10.137Z,12.50
2018-03-26T11:36:10.114Z,12.70
2018-03-26T11:38:03.567Z,7.50
2018-03-26T11:39:03.564Z,7.70
2018-03-26T11:40:57.987Z,9.70
2018-03-26T11:41:58.002Z,8.50
2018-03-26T11:43:53.974Z,9.20
2018-03-26T11:44:53.957Z,9.70
2018-03-26T11:46:47.408Z,9.80
2018-03-26T11:47:47.904Z,8.20
2018-03-26T11:49:40.887Z,7.50
2018-03-26T11:50:40.836Z,7.20
2018-03-26T11:52:35.790Z,8.80
2018-03-26T11:53:35.279Z,9.30
2018-03-26T11:55:29.713Z,8.40
2018-03-26T11:56:31.223Z,7.20
2018-03-26T11:58:24.142Z,8.10
2018-03-26T11:59:24.129Z,7.60
2018-03-26T12:01:19.090Z,8.90
2018-03-26T12:02:18.562Z,8.60
2018-03-26T12:04:14.520Z,9.50
2018-03-26T12:05:14.529Z,10.30
2018-03-26T12:07:08.974Z,8.30
2018-03-26T12:08:08.970Z,6.80
2018-03-26T12:10:03.410Z,6.90
2018-03-26T12:11:03.913Z,8.50
2018-03-26T12:12:58.859Z,8.70
2018-03-26T12:13:57.840Z,8.20
2018-03-26T12:15:52.794Z,5.80
2018-03-26T12:16:52.283Z,6.80
2018-03-26T12:18:47.250Z,8.00
2018-03-26T12:19:46.726Z,10.10
2018-03-26T12:21:42.640Z,9.10
2018-03-26T12:22:42.653Z,8.80
2018-03-26T12:24:37.613Z,9.60
2018-03-26T12:25:37.605Z,8.30
2018-03-26T12:27:32.046Z,6.10
2018-03-26T12:28:32.045Z,8.70
2018-03-26T12:30:24.967Z,6.10
2018-03-26T12:31:24.965Z,6.50
2018-03-26T12:33:19.453Z,5.10
2018-03-26T12:34:19.926Z,7.00
2018-03-26T12:36:14.885Z,6.50
2018-03-26T12:37:14.372Z,12.00
2018-03-26T12:39:10.316Z,5.50
2018-03-26T12:40:09.815Z,6.20
2018-03-26T12:42:02.741Z,6.40
2018-03-26T12:43:03.227Z,7.50
2018-03-26T12:44:56.174Z,6.50
2018-03-26T12:45:56.164Z,7.10
2018-03-26T12:47:50.618Z,7.90
2018-03-26T12:48:50.613Z,5.90
2018-03-26T12:50:44.076Z,6.90
2018-03-26T12:51:44.058Z,6.80
2018-03-26T12:53:38.543Z,7.10
2018-03-26T12:54:38.502Z,7.10
2018-03-26T12:56:35.497Z,5.50
2018-03-26T12:57:34.968Z,5.10
2018-03-26T12:59:28.426Z,5.60
2018-03-26T13:00:27.905Z,6.60
2018-03-26T13:02:22.364Z,6.40
2018-03-26T13:03:21.495Z,6.40
2018-03-26T13:05:15.941Z,6.90
2018-03-26T13:06:16.446Z,6.00
2018-03-26T13:08:09.386Z,6.20
2018-03-26T13:09:09.908Z,6.30
2018-03-26T13:11:03.808Z,4.90
2018-03-26T13:12:03.823Z,6.30
2018-03-26T13:13:57.770Z,4.80
2018-03-26T13:14:57.284Z,4.60
2018-03-26T13:16:51.647Z,5.80
2018-03-26T13:17:50.703Z,6.70
2018-03-26T13:19:44.139Z,5.20
2018-03-26T13:20:44.146Z,7.20
2018-03-26T13:22:38.599Z,6.20
2018-03-26T13:23:39.112Z,6.50
2018-03-26T13:25:33.020Z,7.30
2018-03-26T13:26:33.047Z,6.00
2018-03-26T13:28:27.442Z,6.20
2018-03-26T13:29:27.433Z,6.40
2018-03-26T13:31:20.862Z,6.20
2018-03-26T13:32:20.880Z,5.30
2018-03-26T13:34:14.333Z,6.00
2018-03-26T13:35:14.333Z,6.30
2018-03-26T13:37:08.760Z,8.70
2018-03-26T13:38:08.757Z,6.30
2018-03-26T13:40:02.212Z,4.20
2018-03-26T13:41:02.206Z,5.30
2018-03-26T13:42:56.638Z,4.90
2018-03-26T13:43:57.156Z,5.00
2018-03-26T13:45:53.097Z,5.60
2018-03-26T13:46:51.594Z,5.50
2018-03-26T13:48:46.036Z,5.20
2018-03-26T13:49:46.046Z,4.70
2018-03-26T13:51:39.950Z,3.80
2018-03-26T13:52:39.963Z,4.50
2018-03-26T13:54:33.909Z,4.30
2018-03-26T13:55:33.396Z,4.90
2018-03-26T13:57:27.370Z,3.40
2018-03-26T13:58:26.846Z,4.40
2018-03-26T14:00:21.798Z,4.60
2018-03-26T14:01:21.284Z,3.90
2018-03-26T14:03:14.719Z,5.50
2018-03-26T14:04:14.725Z,3.60
2018-03-26T14:06:09.673Z,5.30
2018-03-26T14:07:09.153Z,4.80
2018-03-26T14:09:02.564Z,5.80
2018-03-26T14:10:03.537Z,4.50
2018-03-26T14:11:56.008Z,4.20
2018-03-26T14:12:56.016Z,4.70
2018-03-26T14:14:50.494Z,8.80
2018-03-26T14:15:50.471Z,5.10
2018-03-26T14:17:44.918Z,5.70
2018-03-26T14:18:45.437Z,5.60
2018-03-26T14:20:38.882Z,9.70
2018-03-26T14:21:38.376Z,3.80
2018-03-26T14:23:31.797Z,6.00
2018-03-26T14:24:31.811Z,3.80
2018-03-26T14:26:26.772Z,5.90
2018-03-26T14:27:26.247Z,7.10
2018-03-26T14:29:21.200Z,3.80
2018-03-26T14:30:20.685Z,5.20
2018-03-26T14:32:15.118Z,3.30
2018-03-26T14:33:15.625Z,3.90
2018-03-26T14:35:08.626Z,4.30
2018-03-26T14:36:08.569Z,5.50
2018-03-26T14:38:05.514Z,4.60
2018-03-26T14:39:04.522Z,7.00
2018-03-26T14:40:58.944Z,4.80
2018-03-26T14:41:58.945Z,5.80
2018-03-26T14:43:54.405Z,4.30
2018-03-26T14:44:53.899Z,4.10
2018-03-26T14:46:48.338Z,4.60
2018-03-26T14:47:47.822Z,3.50
2018-03-26T14:49:42.788Z,3.80
2018-03-26T14:50:42.251Z,4.20
2018-03-26T14:52:35.720Z,4.20
2018-03-26T14:53:35.693Z,3.80
2018-03-26T14:55:30.698Z,4.60
2018-03-26T14:56:30.147Z,4.20
2018-03-26T14:58:24.618Z,4.80
2018-03-26T14:59:25.114Z,4.40
2018-03-26T15:01:19.002Z,6.40
2018-03-26T15:02:19.028Z,6.90
2018-03-26T15:04:12.955Z,4.80
2018-03-26T15:05:12.453Z,4.60
2018-03-26T15:07:06.890Z,4.30
2018-03-26T15:08:06.878Z,4.40
2018-03-26T15:10:00.343Z,3.60
2018-03-26T15:11:00.322Z,4.10
2018-03-26T15:12:54.268Z,3.70
2018-03-26T15:13:54.285Z,5.80
2018-03-26T15:15:48.182Z,6.80
2018-03-26T15:16:48.187Z,7.80
2018-03-26T15:18:42.607Z,4.30
2018-03-26T15:19:42.602Z,3.80
2018-03-26T15:21:37.054Z,4.80
2018-03-26T15:22:37.051Z,4.60
2018-03-26T15:24:31.984Z,4.20
2018-03-26T15:25:31.986Z,3.90
2018-03-26T15:27:26.912Z,3.40
2018-03-26T15:28:25.918Z,3.80
2018-03-26T15:30:20.876Z,5.20
2018-03-26T15:31:20.377Z,5.00
2018-03-26T15:33:13.802Z,5.30
2018-03-26T15:34:13.803Z,6.70
2018-03-26T15:36:08.751Z,4.60
2018-03-26T15:37:08.235Z,4.60
2018-03-26T15:39:02.659Z,4.10
2018-03-26T15:40:03.207Z,4.10
2018-03-26T15:41:56.094Z,4.90
2018-03-26T15:42:56.090Z,3.80
2018-03-26T15:44:50.561Z,6.10
2018-03-26T15:45:50.044Z,4.20
2018-03-26T15:47:44.004Z,4.90
2018-03-26T15:48:44.487Z,4.80
2018-03-26T15:50:37.465Z,8.60
2018-03-26T15:51:37.447Z,7.50
2018-03-26T15:53:30.918Z,5.20
2018-03-26T15:54:30.882Z,5.50
2018-03-26T15:56:25.339Z,4.70
2018-03-26T15:57:25.357Z,5.40
2018-03-26T15:59:19.800Z,6.30
2018-03-26T16:00:19.780Z,6.70
2018-03-26T16:02:15.776Z,7.30
2018-03-26T16:03:15.741Z,6.20
2018-03-26T16:05:08.695Z,4.50
2018-03-26T16:06:08.682Z,4.10
2018-03-26T16:08:02.116Z,6.50
2018-03-26T16:09:02.129Z,4.20
2018-03-26T16:10:55.566Z,6.10
2018-03-26T16:11:56.087Z,7.00
2018-03-26T16:13:50.046Z,6.70
2018-03-26T16:14:50.037Z,5.80
2018-03-26T16:16:44.504Z,4.40
2018-03-26T16:17:44.490Z,5.30
2018-03-26T16:19:39.452Z,4.90
2018-03-26T16:20:38.927Z,4.80
2018-03-26T16:22:33.411Z,5.50
2018-03-26T16:23:33.886Z,5.10
2018-03-26T16:25:28.328Z,6.40
2018-03-26T16:26:27.811Z,5.70
2018-03-26T16:28:21.232Z,6.70
2018-03-26T16:29:21.223Z,6.70
2018-03-26T16:31:15.690Z,8.10
2018-03-26T16:32:15.681Z,7.70
2018-03-26T16:34:10.618Z,6.40
2018-03-26T16:35:10.120Z,5.50
2018-03-26T16:37:05.078Z,8.30
2018-03-26T16:38:05.070Z,6.50
2018-03-26T16:39:59.504Z,5.10
2018-03-26T16:40:59.506Z,5.20
2018-03-26T16:42:52.456Z,5.70
2018-03-26T16:43:52.964Z,6.50
2018-03-26T16:45:46.892Z,6.10
2018-03-26T16:46:46.871Z,5.40
2018-03-26T16:48:40.294Z,5.30
2018-03-26T16:49:40.825Z,4.50
2018-03-26T16:51:35.738Z,5.90
2018-03-26T16:52:34.749Z,5.50
2018-03-26T16:54:28.683Z,7.10
2018-03-26T16:55:28.174Z,6.10
2018-03-26T16:57:22.198Z,5.80
2018-03-26T16:58:22.134Z,6.30
2018-03-26T17:00:15.055Z,6.10
2018-03-26T17:01:15.052Z,6.00
2018-03-26T17:03:11.041Z,8.00
2018-03-26T17:04:10.984Z,6.30
2018-03-26T17:06:05.461Z,5.10
2018-03-26T17:07:05.461Z,5.60
2018-03-26T17:09:00.417Z,5.40
2018-03-26T17:10:00.398Z,6.00
2018-03-26T17:11:54.330Z,6.50
2018-03-26T17:12:54.305Z,6.10
2018-03-26T17:14:48.761Z,6.60
2018-03-26T17:15:49.256Z,7.40
2018-03-26T17:17:46.711Z,6.90
2018-03-26T17:18:45.178Z,6.90
2018-03-26T17:20:39.636Z,6.80
2018-03-26T17:21:39.123Z,6.10
2018-03-26T17:23:34.505Z,7.80
2018-03-26T17:24:33.574Z,5.80
2018-03-26T17:26:29.000Z,6.70
2018-03-26T17:27:28.006Z,6.90
2018-03-26T17:29:22.483Z,7.20
2018-03-26T17:30:22.461Z,5.80
2018-03-26T17:32:16.891Z,6.30
2018-03-26T17:33:16.879Z,6.50
2018-03-26T17:35:10.355Z,6.80
2018-03-26T17:36:10.318Z,8.40
2018-03-26T17:38:03.800Z,6.20
2018-03-26T17:39:03.763Z,5.90
2018-03-26T17:40:58.246Z,6.70
2018-03-26T17:41:58.211Z,6.70
2018-03-26T17:43:51.626Z,5.90
2018-03-26T17:44:52.137Z,6.90
2018-03-26T17:46:46.108Z,7.60
2018-03-26T17:47:46.074Z,7.70
2018-03-26T17:49:42.063Z,6.30
2018-03-26T17:50:42.542Z,8.50
2018-03-26T17:52:35.455Z,6.80
2018-03-26T17:53:35.432Z,8.40
2018-03-26T17:55:28.899Z,6.90
2018-03-26T17:56:28.883Z,7.30
2018-03-26T17:58:23.360Z,8.20
2018-03-26T17:59:23.296Z,6.90
2018-03-26T18:01:18.735Z,6.80
2018-03-26T18:02:17.724Z,7.00
2018-03-26T18:04:11.673Z,7.40
2018-03-26T18:05:11.160Z,7.40
2018-03-26T18:07:05.627Z,6.70
2018-03-26T18:08:06.545Z,6.50
2018-03-26T18:10:00.634Z,7.00
2018-03-26T18:11:00.571Z,8.70
2018-03-26T18:12:54.003Z,7.20
2018-03-26T18:13:53.493Z,10.10
2018-03-26T18:15:48.432Z,9.40
2018-03-26T18:16:47.933Z,10.40
2018-03-26T18:18:41.358Z,6.80
2018-03-26T18:19:41.368Z,7.90
2018-03-26T18:21:36.323Z,10.00
2018-03-26T18:22:35.777Z,9.10
2018-03-26T18:24:30.731Z,9.60
2018-03-26T18:25:30.226Z,8.60
2018-03-26T18:27:29.178Z,9.10
2018-03-26T18:28:28.283Z,7.80
2018-03-26T18:30:24.220Z,8.20
2018-03-26T18:31:23.274Z,8.10
2018-03-26T18:33:16.168Z,7.00
2018-03-26T18:34:16.142Z,8.10
2018-03-26T18:36:11.093Z,7.10
2018-03-26T18:37:10.600Z,6.50
2018-03-26T18:39:05.551Z,10.00
2018-03-26T18:40:04.987Z,9.10
2018-03-26T18:41:59.934Z,7.80
2018-03-26T18:43:00.867Z,9.00
2018-03-26T18:44:53.910Z,8.70
2018-03-26T18:45:54.389Z,10.00
2018-03-26T18:47:48.316Z,7.50
2018-03-26T18:48:48.822Z,8.90
2018-03-26T18:50:43.271Z,11.60
2018-03-26T18:51:42.750Z,9.80
2018-03-26T18:53:36.696Z,9.30
2018-03-26T18:54:36.186Z,8.40